Flugplatz Baltrum

Für EDWZ sind keine METAR/TAF Berichte vorhanden.
Es werden die Flugwettermeldungen vom Flugplatz Wittmundhafen Airport in 27 km Entfernung angezeigt.

Bericht für ETNT

vom 07.03. um 01:20 UTC

Wind 8 kt aus 260°

Sichtweite 10 km oder mehr

Temperatur 3.0°C

Taupunkt -2.0°C

Luftfeuchtigkeit 70%

Luftdruck 1027 hPa

ETNT 070120Z AUTO 26008KT 9999 // ////// 03/M02 Q1027 ///
Keine Prognose (TAF) verfügbar.
Impressum